Time;durP1;ratioP1;P1;durP2;ratioP2;P2;SDS_P1;SDS_P2;PMS_P1;PMS_P2;Temp;Humidity;BMP_temperature;BMP_pressure;BME280_temperature;BME280_humidity;BME280_pressure;Samples;Min_cycle;Max_cycle;Signal;HPM_P1;HPM_P2
2023/07/15 00:02:13;;;;;;;5.45;3.67;;;;;;;18.73;64.49;100876.22;4923848;29;20063;-72
2023/07/15 00:04:41;;;;;;;4.82;3.53;;;;;;;18.75;61.96;100872.06;4920225;29;20027;-72
2023/07/15 00:07:07;;;;;;;4.60;3.40;;;;;;;18.83;61.90;100870.47;4917553;29;20419;-74
2023/07/15 00:09:35;;;;;;;4.85;3.25;;;;;;;18.88;62.28;100867.59;4915027;29;20047;-72
2023/07/15 00:12:01;;;;;;;9.55;3.42;;;;;;;18.84;62.55;100869.38;4926509;29;20043;-73
2023/07/15 00:14:34;;;;;;;5.53;3.60;;;;;;;18.86;60.88;100871.75;4955007;28;20065;-72
2023/07/15 00:17:00;;;;;;;5.88;3.80;;;;;;;18.94;61.43;100873.66;4912013;29;20134;-73
2023/07/15 00:19:28;;;;;;;8.10;3.70;;;;;;;18.98;60.53;100861.03;4938833;29;20063;-72
2023/07/15 00:22:01;;;;;;;4.88;3.60;;;;;;;19.00;59.82;100866.94;4910077;29;20043;-71
2023/07/15 00:24:33;;;;;;;5.05;3.70;;;;;;;19.05;59.61;100855.91;4917659;29;20043;-72
2023/07/15 00:27:00;;;;;;;6.93;3.80;;;;;;;19.06;59.07;100841.22;4929914;29;20114;-73
2023/07/15 00:29:33;;;;;;;6.32;3.78;;;;;;;19.10;58.92;100834.00;4947982;28;20035;-73
2023/07/15 00:32:11;;;;;;;6.25;3.60;;;;;;;19.15;58.50;100831.13;4914044;29;20071;-72
2023/07/15 00:34:38;;;;;;;4.55;3.42;;;;;;;19.17;58.72;100823.47;4935466;28;20027;-71
2023/07/15 00:37:07;;;;;;;5.88;3.05;;;;;;;19.15;59.42;100816.75;4929402;29;20935;-72
2023/07/15 00:39:33;;;;;;;4.70;3.15;;;;;;;19.08;60.19;100815.31;4933485;29;20035;-73
2023/07/15 00:42:06;;;;;;;5.03;3.63;;;;;;;19.07;59.94;100812.94;4929884;29;20035;-71
2023/07/15 00:44:32;;;;;;;5.82;3.80;;;;;;;19.15;59.36;100812.13;4902061;29;20050;-73
2023/07/15 00:47:12;;;;;;;6.30;3.63;;;;;;;19.15;58.27;100808.59;4916512;29;20560;-75
2023/07/15 00:49:39;;;;;;;4.97;3.10;;;;;;;19.16;58.24;100800.13;4926232;29;20039;-74
2023/07/15 00:52:13;;;;;;;7.28;4.05;;;;;;;19.18;57.81;100803.34;4927533;29;20054;-74
2023/07/15 00:54:42;;;;;;;6.70;3.88;;;;;;;19.20;57.64;100800.28;4931354;29;20042;-73
2023/07/15 00:57:11;;;;;;;5.85;3.28;;;;;;;19.21;57.83;100807.31;4911123;29;20047;-74
2023/07/15 00:59:39;;;;;;;6.80;3.38;;;;;;;19.18;58.59;100808.75;4932126;28;20027;-72
2023/07/15 01:02:07;;;;;;;5.53;3.78;;;;;;;19.15;58.60;100789.59;4902141;29;20130;-71
2023/07/15 01:04:35;;;;;;;5.38;3.50;;;;;;;19.09;58.23;100788.97;4935602;28;20093;-73
2023/07/15 01:07:02;;;;;;;6.45;3.83;;;;;;;19.09;58.34;100794.41;4895516;29;20923;-72
2023/07/15 01:09:28;;;;;;;4.68;3.53;;;;;;;19.13;58.20;100789.94;4932464;29;20113;-74
2023/07/15 01:11:54;;;;;;;6.70;3.80;;;;;;;19.11;59.13;100785.97;4937542;29;20043;-72
2023/07/15 01:14:20;;;;;;;7.90;3.53;;;;;;;19.08;57.94;100790.91;4937600;28;20527;-72
2023/07/15 01:16:49;;;;;;;4.40;3.00;;;;;;;19.13;58.13;100787.22;4924689;29;20032;-74
2023/07/15 01:19:18;;;;;;;4.88;3.15;;;;;;;19.10;58.59;100787.84;4929333;29;20072;-72
2023/07/15 01:21:54;;;;;;;5.72;3.00;;;;;;;19.07;58.74;100774.94;4933065;29;20512;-72
2023/07/15 01:24:26;;;;;;;5.07;3.25;;;;;;;19.02;59.67;100783.25;4937045;28;20289;-72
2023/07/15 01:27:00;;;;;;;5.85;3.72;;;;;;;18.98;59.52;100774.19;4902069;29;20035;-71
2023/07/15 01:29:47;;;;;;;5.82;3.38;;;;;;;18.88;59.71;100759.06;4951345;28;20501;-73
2023/07/15 01:32:18;;;;;;;4.63;3.03;;;;;;;18.85;59.01;100758.91;4937661;29;20122;-73
2023/07/15 01:35:09;;;;;;;4.32;3.10;;;;;;;18.90;59.25;100759.53;4897439;29;20142;-74
2023/07/15 01:37:59;;;;;;;4.45;3.00;;;;;;;18.84;58.96;100760.03;4927386;29;20048;-75
2023/07/15 01:40:29;;;;;;;5.50;3.42;;;;;;;18.81;58.91;100762.25;4950060;28;20046;-73
2023/07/15 01:43:02;;;;;;;4.95;3.05;;;;;;;18.77;59.28;100755.91;4908445;29;20043;-74
2023/07/15 01:45:32;;;;;;;5.82;3.35;;;;;;;18.71;60.26;100753.69;4902881;29;20532;-74
2023/07/15 01:48:09;;;;;;;6.53;3.58;;;;;;;18.66;59.90;100746.53;4943930;28;20501;-73
2023/07/15 01:50:47;;;;;;;8.95;3.30;;;;;;;18.65;59.93;100747.63;4917888;29;20040;-74
2023/07/15 01:53:19;;;;;;;5.35;3.10;;;;;;;18.64;59.36;100746.03;4934904;29;20047;-72
2023/07/15 01:55:56;;;;;;;4.55;3.20;;;;;;;18.64;59.46;100746.03;4890653;29;20039;-72
2023/07/15 01:58:40;;;;;;;5.47;3.22;;;;;;;18.54;59.05;100730.88;4917161;29;20036;-72
2023/07/15 02:01:11;;;;;;;7.03;3.85;;;;;;;18.58;60.14;100720.19;4923354;29;20046;-71
2023/07/15 02:04:14;;;;;;;5.78;3.35;;;;;;;18.51;59.36;100711.75;4914237;29;20047;-72
2023/07/15 02:06:54;;;;;;;5.68;3.28;;;;;;;18.50;58.85;100707.47;4887224;28;20128;-73
2023/07/15 02:09:26;;;;;;;4.65;3.38;;;;;;;18.49;59.18;100709.38;4932726;29;20282;-75
2023/07/15 02:12:07;;;;;;;5.38;3.70;;;;;;;18.46;59.27;100701.88;4922890;29;20043;-74
2023/07/15 02:15:00;;;;;;;5.50;3.90;;;;;;;18.48;59.25;100698.84;4915264;29;20495;-73
2023/07/15 02:17:42;;;;;;;6.30;3.70;;;;;;;18.39;59.75;100689.94;4935387;29;20043;-73
2023/07/15 02:20:12;;;;;;;6.50;3.75;;;;;;;18.39;59.58;100690.72;4930551;29;20039;-73
2023/07/15 02:22:43;;;;;;;7.20;3.50;;;;;;;18.35;60.97;100692.47;4934072;29;20685;-71
2023/07/15 02:25:21;;;;;;;4.22;3.28;;;;;;;18.28;59.44;100676.72;4895898;29;20047;-74
2023/07/15 02:28:30;;;;;;;;;;;;;;;;;;;;;
2023/07/15 02:31:35;;;;;;;5.30;3.10;;;;;;;18.23;60.52;100666.06;4927391;28;20031;-72
2023/07/15 02:34:30;;;;;;;4.78;3.72;;;;;;;18.24;59.82;100683.13;4924362;28;20043;-73
2023/07/15 02:37:27;;;;;;;4.75;3.42;;;;;;;18.17;60.12;100671.97;4914461;29;20039;-71
2023/07/15 02:39:56;;;;;;;7.30;3.40;;;;;;;18.12;60.79;100674.84;4919552;29;20054;-71
2023/07/15 02:42:28;;;;;;;;;;;;;;;18.15;60.47;100674.97;4918204;29;20159;-73
2023/07/15 02:45:04;;;;;;;5.20;3.72;;;;;;;18.07;60.88;100664.16;4913407;29;19919;-73
2023/07/15 02:47:44;;;;;;;4.68;3.25;;;;;;;18.06;61.15;100666.06;4938731;29;20035;-72
2023/07/15 02:50:12;;;;;;;5.70;4.18;;;;;;;17.97;60.31;100655.25;4929264;28;20043;-72
2023/07/15 02:53:03;;;;;;;5.68;3.13;;;;;;;17.93;61.64;100646.16;4924457;29;20047;-73
2023/07/15 02:55:33;;;;;;;5.50;3.22;;;;;;;17.88;62.51;100651.78;4934419;29;20126;-71
2023/07/15 02:57:59;;;;;;;4.78;3.45;;;;;;;17.85;61.32;100646.19;4920422;29;20074;-72
2023/07/15 03:00:28;;;;;;;7.72;3.28;;;;;;;17.85;61.79;100648.91;4919941;29;20123;-72
2023/07/15 03:02:59;;;;;;;4.57;3.22;;;;;;;17.86;60.91;100645.06;4930749;29;20116;-74
2023/07/15 03:05:28;;;;;;;5.30;2.60;;;;;;;17.85;61.00;100643.47;4951689;28;20038;-72
2023/07/15 03:07:54;;;;;;;5.15;3.20;;;;;;;17.91;61.00;100643.00;4917964;29;20043;-72
2023/07/15 03:10:20;;;;;;;5.85;2.97;;;;;;;17.85;61.29;100640.78;4922937;29;20114;-72
2023/07/15 03:15:39;;;;;;;5.35;3.10;;;;;;;17.84;60.72;100626.44;4931845;29;20040;-72
2023/07/15 03:21:04;;;;;;;6.85;3.75;;;;;;;17.87;60.88;100641.25;4916407;29;20039;-72
2023/07/15 03:23:30;;;;;;;;;;;;;;;17.86;60.52;100645.06;4937334;29;20030;-72
2023/07/15 03:25:56;;;;;;;5.13;3.33;;;;;;;17.79;60.50;100637.44;4899329;29;20376;-73
2023/07/15 03:28:26;;;;;;;4.80;3.33;;;;;;;17.81;60.87;100629.78;4939558;29;20040;-72
2023/07/15 03:30:52;;;;;;;6.10;3.35;;;;;;;17.84;60.43;100633.78;4921583;29;20042;-72
2023/07/15 03:33:19;;;;;;;5.40;2.95;;;;;;;17.80;61.12;100630.88;4936076;28;20043;-71
2023/07/15 03:35:45;;;;;;;7.13;3.35;;;;;;;17.81;60.82;100626.25;4941207;28;20400;-73
2023/07/15 03:38:11;;;;;;;6.05;3.40;;;;;;;17.80;60.72;100620.06;4939349;29;20049;-72
2023/07/15 03:40:37;;;;;;;4.80;3.17;;;;;;;17.86;60.54;100634.22;4923813;28;20035;-72
2023/07/15 03:43:03;;;;;;;;;;;;;;;17.88;60.32;100632.00;4917693;29;20051;-72
2023/07/15 03:45:29;;;;;;;4.38;2.78;;;;;;;17.89;60.91;100626.28;4916139;29;19918;-72
2023/07/15 03:47:55;;;;;;;9.65;2.90;;;;;;;17.89;61.13;100633.59;4933664;29;20036;-73
2023/07/15 03:50:21;;;;;;;4.28;2.95;;;;;;;17.91;60.55;100628.66;4938458;29;20035;-71
2023/07/15 03:52:47;;;;;;;4.60;3.03;;;;;;;17.91;60.25;100618.63;4930233;29;20046;-72
2023/07/15 03:55:12;;;;;;;5.38;3.67;;;;;;;17.92;60.11;100609.38;4920039;29;20038;-72
2023/07/15 03:57:38;;;;;;;5.55;2.85;;;;;;;17.92;60.46;100614.00;4920930;29;20452;-73
2023/07/15 04:00:16;;;;;;;5.88;3.40;;;;;;;17.92;60.14;100614.00;4918850;29;20039;-73
2023/07/15 04:02:44;;;;;;;5.32;3.60;;;;;;;17.91;61.31;100615.91;4936677;29;20039;-72
2023/07/15 04:05:11;;;;;;;6.70;3.90;;;;;;;17.90;60.74;100619.75;4911020;29;20031;-72
2023/07/15 04:07:37;;;;;;;4.18;2.92;;;;;;;17.89;60.83;100614.66;4933965;29;20086;-73
2023/07/15 04:10:03;;;;;;;5.07;3.28;;;;;;;17.88;60.88;100613.03;4926747;29;20108;-72
2023/07/15 04:12:29;;;;;;;5.10;3.13;;;;;;;17.88;60.83;100615.75;4936256;29;20111;-71
2023/07/15 04:14:54;;;;;;;5.55;3.28;;;;;;;17.87;60.74;100608.72;4915114;29;20087;-72
2023/07/15 04:17:20;;;;;;;7.65;3.67;;;;;;;17.87;60.98;100609.53;4940709;28;20127;-71
2023/07/15 04:19:46;;;;;;;4.43;3.10;;;;;;;17.85;62.17;100614.47;4928425;29;20035;-72
2023/07/15 04:22:13;;;;;;;5.70;3.80;;;;;;;17.81;61.28;100616.22;4933113;29;20057;-73
2023/07/15 04:24:38;;;;;;;6.60;4.07;;;;;;;17.81;61.57;100616.22;4938970;29;20083;-73
2023/07/15 04:27:04;;;;;;;5.85;3.20;;;;;;;17.79;61.86;100614.97;4929942;29;20074;-74
2023/07/15 04:29:31;;;;;;;5.65;3.20;;;;;;;17.79;61.90;100604.94;4920032;29;20676;-72
2023/07/15 04:31:56;;;;;;;6.85;3.15;;;;;;;17.76;61.83;100613.72;4933938;29;20055;-72
2023/07/15 04:34:23;;;;;;;8.02;4.03;;;;;;;17.78;61.73;100613.38;4923080;29;20513;-72
2023/07/15 04:36:49;;;;;;;5.00;2.97;;;;;;;17.79;62.06;100617.69;4932240;29;20057;-72
2023/07/15 04:39:15;;;;;;;4.80;3.63;;;;;;;17.77;62.96;100612.59;4930606;29;20047;-74
2023/07/15 04:41:40;;;;;;;5.18;3.00;;;;;;;17.77;62.93;100614.50;4902470;29;20075;-72
2023/07/15 04:44:06;;;;;;;6.20;3.15;;;;;;;17.79;62.79;100612.25;4915542;29;20031;-72
2023/07/15 04:46:32;;;;;;;7.95;3.38;;;;;;;17.79;62.55;100604.13;4924804;29;20581;-73
2023/07/15 04:48:58;;;;;;;5.85;3.20;;;;;;;17.82;62.68;100604.31;4917151;29;20044;-71
2023/07/15 04:51:23;;;;;;;6.15;3.28;;;;;;;17.87;61.90;100608.72;4935219;29;20130;-72
2023/07/15 04:53:49;;;;;;;5.45;2.83;;;;;;;17.88;62.98;100592.19;4933161;28;20067;-73
2023/07/15 04:56:15;;;;;;;6.13;3.50;;;;;;;17.92;61.91;100589.59;4934086;28;20121;-71
2023/07/15 04:58:41;;;;;;;6.03;3.33;;;;;;;17.94;62.12;100592.78;4935269;29;20531;-74
2023/07/15 05:01:06;;;;;;;4.90;3.22;;;;;;;17.98;62.52;100593.75;4928089;29;20043;-72
2023/07/15 05:03:32;;;;;;;;;;;;;;;18.03;62.21;100590.88;4937233;28;20067;-72
2023/07/15 05:05:58;;;;;;;6.15;2.80;;;;;;;18.05;62.34;100582.41;4926778;29;19926;-73
2023/07/15 05:08:24;;;;;;;5.90;3.25;;;;;;;18.12;62.35;100583.50;4916375;29;20047;-73
2023/07/15 05:10:51;;;;;;;6.43;3.22;;;;;;;18.13;62.17;100590.50;4927757;29;20106;-72
2023/07/15 05:13:17;;;;;;;5.93;3.78;;;;;;;18.19;62.30;100589.22;4929754;29;20044;-72
2023/07/15 05:15:43;;;;;;;6.95;3.30;;;;;;;18.25;62.71;100592.53;4939975;28;20461;-71
2023/07/15 05:18:10;;;;;;;5.00;3.22;;;;;;;18.31;62.62;100596.66;4913253;29;20058;-74
2023/07/15 05:20:36;;;;;;;;;;;;;;;18.40;61.88;100599.34;4915854;29;20048;-72
2023/07/15 05:23:03;;;;;;;5.13;2.85;;;;;;;18.45;61.59;100599.16;4932065;29;20009;-73
2023/07/15 05:25:30;;;;;;;6.75;3.17;;;;;;;18.56;61.43;100594.97;4946191;28;20476;-72
2023/07/15 05:27:56;;;;;;;8.18;3.03;;;;;;;18.65;60.98;100589.50;4923368;29;20070;-73
2023/07/15 05:30:22;;;;;;;6.18;3.42;;;;;;;18.76;60.41;100601.56;4932126;29;20046;-74
2023/07/15 05:32:48;;;;;;;5.90;3.67;;;;;;;18.82;61.55;100589.41;4925015;29;20047;-72
2023/07/15 05:35:14;;;;;;;;;;;;;;;18.90;59.98;100596.72;4934882;29;20032;-72
2023/07/15 05:37:40;;;;;;;6.10;3.33;;;;;;;18.98;59.99;100593.16;4931522;29;19923;-72
2023/07/15 05:40:09;;;;;;;3.97;2.95;;;;;;;19.09;60.16;100591.63;4914469;29;20085;-72
2023/07/15 05:42:40;;;;;;;5.68;3.60;;;;;;;19.18;59.95;100590.78;4936191;29;20086;-74
2023/07/15 05:45:06;;;;;;;5.68;3.10;;;;;;;19.22;58.30;100591.72;4934037;29;20178;-74
2023/07/15 05:47:32;;;;;;;5.22;3.03;;;;;;;19.25;59.08;100591.84;4935311;29;20036;-73
2023/07/15 05:49:57;;;;;;;;;;;;;;;19.24;59.42;100592.97;4915616;29;20045;-72
2023/07/15 05:52:24;;;;;;;4.80;3.63;;;;;;;19.24;59.41;100601.13;4935248;29;19915;-72
2023/07/15 05:54:49;;;;;;;4.18;2.72;;;;;;;19.20;60.27;100596.69;4929677;28;20036;-73
2023/07/15 05:57:15;;;;;;;6.28;3.72;;;;;;;19.17;61.01;100597.31;4936729;29;20043;-72
2023/07/15 05:59:41;;;;;;;5.75;3.50;;;;;;;19.18;60.78;100591.59;4917910;29;20039;-72
2023/07/15 06:02:06;;;;;;;;;;;;;;;19.14;60.34;100593.38;4916572;29;20040;-71
2023/07/15 06:04:32;;;;;;;5.60;3.28;;;;;;;19.17;60.29;100583.75;4915439;29;19953;-72
2023/07/15 06:06:57;;;;;;;;;;;;;;;19.25;61.40;100597.28;4928620;29;20031;-72
2023/07/15 06:09:23;;;;;;;4.32;3.28;;;;;;;19.31;61.18;100601.41;4932723;29;19982;-72
2023/07/15 06:11:48;;;;;;;;;;;;;;;19.43;60.47;100597.91;4915073;29;20055;-71
2023/07/15 06:14:15;;;;;;;6.25;3.25;;;;;;;19.46;61.23;100597.28;4939505;28;19928;-71
2023/07/15 06:16:40;;;;;;;5.80;3.50;;;;;;;19.54;60.93;100598.31;4931957;29;20036;-73
2023/07/15 06:19:06;;;;;;;6.85;3.13;;;;;;;19.71;60.14;100592.78;4927504;29;20049;-71
2023/07/15 06:21:32;;;;;;;;;;;;;;;19.86;59.31;100599.50;4903130;29;20520;-73
2023/07/15 06:23:57;;;;;;;3.92;2.75;;;;;;;19.97;59.38;100595.19;4924835;29;19920;-72
2023/07/15 06:26:23;;;;;;;;;;;;;;;20.09;59.88;100586.28;4914548;29;20405;-72
2023/07/15 06:28:50;;;;;;;6.15;3.20;;;;;;;20.20;59.86;100586.66;4909874;29;19919;-71
2023/07/15 06:31:15;;;;;;;8.95;3.22;;;;;;;20.34;59.24;100582.47;4936901;28;20035;-71
2023/07/15 06:33:41;;;;;;;4.38;2.90;;;;;;;20.48;59.44;100581.38;4932799;29;20046;-72
2023/07/15 06:36:07;;;;;;;8.30;3.50;;;;;;;20.56;59.92;100566.88;4935737;28;20082;-73
2023/07/15 06:38:33;;;;;;;6.78;2.80;;;;;;;20.62;58.97;100576.38;4917836;29;20036;-73
2023/07/15 06:40:58;;;;;;;4.63;2.95;;;;;;;20.74;59.08;100578.31;4923476;29;20052;-73
2023/07/15 06:43:24;;;;;;;4.60;3.65;;;;;;;20.85;58.13;100572.03;4934413;28;20031;-71
2023/07/15 06:45:50;;;;;;;4.68;3.40;;;;;;;21.00;58.02;100570.56;4913135;29;20090;-72
2023/07/15 06:48:17;;;;;;;4.45;3.03;;;;;;;21.10;58.07;100570.06;4932379;29;20511;-74
2023/07/15 06:50:42;;;;;;;4.40;2.67;;;;;;;21.26;57.50;100578.28;4927575;29;20488;-73
2023/07/15 06:53:09;;;;;;;5.18;2.92;;;;;;;21.42;57.82;100571.03;4913982;29;20036;-73
2023/07/15 06:55:35;;;;;;;5.15;3.25;;;;;;;21.58;56.59;100567.53;4929424;29;20050;-71
2023/07/15 06:58:02;;;;;;;3.50;2.83;;;;;;;21.69;56.49;100572.16;4914673;29;20525;-72
2023/07/15 07:00:28;;;;;;;6.35;3.45;;;;;;;21.85;56.57;100574.91;4915617;29;20044;-73
2023/07/15 07:02:54;;;;;;;6.25;2.85;;;;;;;21.96;56.24;100572.47;4906572;29;20039;-73
2023/07/15 07:05:19;;;;;;;5.05;3.28;;;;;;;22.06;55.94;100580.09;4918651;29;20094;-76
2023/07/15 07:07:47;;;;;;;5.45;3.17;;;;;;;22.18;56.11;100574.59;4928120;29;20056;-73
2023/07/15 07:10:13;;;;;;;4.68;2.97;;;;;;;22.31;56.61;100575.31;4934208;29;20117;-73
2023/07/15 07:12:39;;;;;;;5.32;2.85;;;;;;;22.41;56.35;100574.75;4938967;29;20054;-72
2023/07/15 07:15:05;;;;;;;5.43;2.90;;;;;;;22.54;56.56;100576.25;4931218;28;20079;-72
2023/07/15 07:17:31;;;;;;;7.07;3.40;;;;;;;22.65;57.11;100570.25;4931940;29;20039;-72
2023/07/15 07:19:58;;;;;;;6.53;3.17;;;;;;;22.77;55.48;100572.88;4931492;29;20054;-74
2023/07/15 07:22:24;;;;;;;4.43;3.00;;;;;;;22.90;55.66;100570.84;4932945;29;20040;-75
2023/07/15 07:24:52;;;;;;;5.20;2.90;;;;;;;22.96;56.37;100564.72;4920430;29;20054;-75
2023/07/15 07:27:18;;;;;;;6.38;3.35;;;;;;;23.08;56.57;100572.78;4931419;29;20035;-72
2023/07/15 07:29:44;;;;;;;4.60;2.90;;;;;;;23.25;57.12;100570.81;4936916;29;20575;-75
2023/07/15 07:32:09;;;;;;;4.68;2.53;;;;;;;23.34;54.57;100568.66;4933417;29;20043;-73
2023/07/15 07:34:35;;;;;;;9.23;3.47;;;;;;;23.46;54.04;100571.22;4933580;29;21084;-74
2023/07/15 07:37:01;;;;;;;5.95;3.00;;;;;;;23.60;53.46;100557.84;4916737;29;20634;-72
2023/07/15 07:39:28;;;;;;;4.90;3.22;;;;;;;23.78;54.08;100560.94;4918454;29;20506;-73
2023/07/15 07:41:54;;;;;;;4.75;2.63;;;;;;;23.88;54.27;100559.53;4948280;28;20512;-73
2023/07/15 07:44:21;;;;;;;3.80;3.03;;;;;;;24.01;51.41;100557.41;4936362;29;20059;-72
2023/07/15 07:46:46;;;;;;;4.68;2.55;;;;;;;24.08;52.03;100552.06;4913263;29;20036;-75
2023/07/15 07:49:12;;;;;;;4.15;2.47;;;;;;;24.21;52.95;100550.72;4937068;29;20090;-72
2023/07/15 07:51:38;;;;;;;6.72;2.70;;;;;;;24.34;54.12;100538.44;4920792;29;20039;-72
2023/07/15 07:54:04;;;;;;;5.93;3.00;;;;;;;24.43;52.10;100549.13;4917523;29;20445;-72
2023/07/15 07:56:29;;;;;;;6.25;2.92;;;;;;;24.53;51.42;100551.25;4918288;29;20492;-74
2023/07/15 07:58:57;;;;;;;5.18;2.70;;;;;;;24.66;52.10;100547.16;4928790;29;20645;-72
2023/07/15 08:01:27;;;;;;;4.90;3.50;;;;;;;24.75;51.50;100546.88;4917275;29;20039;-74
2023/07/15 08:03:54;;;;;;;3.63;2.95;;;;;;;24.86;51.87;100547.00;4927315;29;20036;-74
2023/07/15 08:06:21;;;;;;;7.15;2.97;;;;;;;25.01;49.76;100543.31;4916526;29;20039;-73
2023/07/15 08:08:46;;;;;;;4.93;3.00;;;;;;;25.09;49.45;100536.00;4920843;29;20802;-74
2023/07/15 08:11:12;;;;;;;4.10;2.47;;;;;;;25.19;50.99;100535.31;4918219;29;20043;-74
2023/07/15 08:13:39;;;;;;;5.78;2.70;;;;;;;25.32;51.63;100534.69;4930784;29;20048;-73
2023/07/15 08:16:05;;;;;;;4.68;2.70;;;;;;;25.45;50.97;100531.69;4926462;29;20500;-71
2023/07/15 08:18:31;;;;;;;5.53;2.80;;;;;;;25.54;51.04;100534.94;4918473;29;20052;-72
2023/07/15 08:20:56;;;;;;;3.33;2.30;;;;;;;25.66;49.34;100523.69;4939505;29;20393;-72
2023/07/15 08:23:23;;;;;;;3.45;2.65;;;;;;;25.78;49.76;100531.66;4915560;28;20051;-73
2023/07/15 08:25:49;;;;;;;4.22;2.58;;;;;;;25.92;49.00;100530.22;4937952;29;20047;-74
2023/07/15 08:28:15;;;;;;;4.07;2.50;;;;;;;26.02;48.70;100526.78;4923577;29;20055;-72
2023/07/15 08:30:40;;;;;;;4.50;2.45;;;;;;;26.14;47.74;100515.50;4923090;29;20054;-73
2023/07/15 08:33:06;;;;;;;6.07;2.38;;;;;;;26.16;47.71;100515.94;4929829;29;20119;-72
2023/07/15 08:35:34;;;;;;;3.55;2.60;;;;;;;26.23;47.15;100515.19;4912760;29;20516;-75
2023/07/15 08:38:00;;;;;;;6.30;2.95;;;;;;;26.31;45.24;100522.31;4932941;29;20031;-76
2023/07/15 08:40:26;;;;;;;4.43;2.63;;;;;;;26.46;46.21;100534.97;4936852;29;20046;-74
2023/07/15 08:42:52;;;;;;;3.60;2.45;;;;;;;26.62;48.68;100540.16;4928677;29;20492;-71
2023/07/15 08:45:19;;;;;;;5.15;2.50;;;;;;;26.75;47.78;100544.16;4932516;29;20023;-75
2023/07/15 08:47:46;;;;;;;4.05;2.45;;;;;;;26.80;47.30;100535.56;4934896;29;20043;-72
2023/07/15 08:50:15;;;;;;;3.55;2.40;;;;;;;26.88;45.61;100531.69;4917027;29;20034;-72
2023/07/15 08:52:45;;;;;;;3.15;2.30;;;;;;;26.94;45.45;100537.59;4938239;28;20054;-72
2023/07/15 08:55:12;;;;;;;3.65;2.67;;;;;;;27.02;44.61;100535.66;4913931;29;20062;-73
2023/07/15 08:57:39;;;;;;;3.22;2.28;;;;;;;27.12;43.97;100529.47;4921070;29;20641;-75
2023/07/15 09:00:09;;;;;;;4.55;2.13;;;;;;;27.18;44.96;100533.44;4935429;29;20062;-71
2023/07/15 09:02:37;;;;;;;3.63;2.78;;;;;;;27.25;45.82;100522.44;4927807;29;20043;-76
2023/07/15 09:05:09;;;;;;;3.38;2.22;;;;;;;27.40;44.42;100532.31;4925889;28;20047;-74
2023/07/15 09:07:45;;;;;;;6.38;2.47;;;;;;;27.47;43.94;100523.28;4918228;29;20050;-74
2023/07/15 09:10:12;;;;;;;3.78;2.22;;;;;;;27.59;44.58;100519.38;4923036;29;20858;-71
2023/07/15 09:12:51;;;;;;;5.90;2.95;;;;;;;27.66;43.92;100520.19;4932683;29;20118;-74
2023/07/15 09:15:17;;;;;;;3.30;2.45;;;;;;;27.80;45.78;100519.44;4916417;29;20043;-76
2023/07/15 09:17:59;;;;;;;4.88;2.22;;;;;;;27.87;44.46;100518.66;4950381;28;20370;-74
2023/07/15 09:20:26;;;;;;;3.45;2.13;;;;;;;27.90;42.60;100524.16;4934083;29;20059;-74
2023/07/15 09:23:00;;;;;;;4.57;2.80;;;;;;;28.00;43.32;100520.63;4943163;28;20043;-77
2023/07/15 09:25:26;;;;;;;3.38;2.30;;;;;;;28.11;43.43;100523.38;4917749;29;20031;-73
2023/07/15 09:27:53;;;;;;;3.97;2.35;;;;;;;28.21;43.64;100514.31;4927006;29;20036;-72
2023/07/15 09:30:19;;;;;;;4.18;2.25;;;;;;;28.34;43.35;100522.97;4919499;29;20041;-75
2023/07/15 09:32:46;;;;;;;3.83;1.98;;;;;;;28.47;44.12;100523.34;4920042;29;20039;-74
2023/07/15 09:35:14;;;;;;;3.50;2.35;;;;;;;28.58;42.92;100518.59;4918343;29;20492;-76
2023/07/15 09:37:39;;;;;;;4.13;2.63;;;;;;;28.60;42.59;100512.72;4932866;29;20039;-74
2023/07/15 09:40:08;;;;;;;3.38;2.28;;;;;;;28.64;40.97;100516.22;4899686;29;20038;-75
2023/07/15 09:42:53;;;;;;;4.63;2.65;;;;;;;28.71;39.94;100516.97;4954110;28;20182;-74
2023/07/15 09:45:39;;;;;;;4.13;2.10;;;;;;;28.90;42.28;100517.72;4933974;29;20027;-73
2023/07/15 09:48:07;;;;;;;3.90;2.40;;;;;;;29.05;43.09;100514.50;4938757;29;20042;-75
2023/07/15 09:50:35;;;;;;;4.47;2.45;;;;;;;29.14;40.72;100516.06;4935444;29;20043;-72
2023/07/15 09:53:01;;;;;;;4.53;2.10;;;;;;;29.24;41.54;100510.50;4918340;29;20417;-71
2023/07/15 09:55:29;;;;;;;3.83;2.45;;;;;;;29.34;39.87;100523.44;4932831;29;20492;-73
2023/07/15 09:58:05;;;;;;;3.75;2.13;;;;;;;29.44;41.52;100521.81;4901126;29;20069;-73
2023/07/15 10:00:35;;;;;;;2.83;2.38;;;;;;;29.55;39.95;100511.53;4918279;29;20046;-71
2023/07/15 10:03:17;;;;;;;4.00;2.20;;;;;;;29.64;41.55;100516.59;4930283;29;20035;-73
2023/07/15 10:05:45;;;;;;;3.25;2.40;;;;;;;29.66;39.95;100521.69;4936821;29;20473;-72
2023/07/15 10:08:15;;;;;;;3.88;2.40;;;;;;;29.63;39.92;100521.31;4925876;29;20134;-72
2023/07/15 10:10:47;;;;;;;4.00;2.80;;;;;;;29.72;40.62;100514.56;4918151;29;20789;-72
2023/07/15 10:13:18;;;;;;;4.10;2.33;;;;;;;29.82;42.12;100516.47;4925183;29;20088;-71
2023/07/15 10:15:44;;;;;;;3.13;2.63;;;;;;;29.88;40.73;100525.88;4899508;29;20046;-73
2023/07/15 10:18:19;;;;;;;3.22;2.25;;;;;;;29.90;39.08;100517.97;4940522;28;20043;-73
2023/07/15 10:21:03;;;;;;;4.70;2.40;;;;;;;30.02;41.01;100514.72;4932461;29;20048;-72
2023/07/15 10:23:37;;;;;;;4.53;2.53;;;;;;;30.20;40.30;100519.31;4930064;28;20039;-73
2023/07/15 10:26:10;;;;;;;3.03;2.30;;;;;;;30.37;41.07;100524.66;4914073;29;20035;-71
2023/07/15 10:28:40;;;;;;;3.63;2.42;;;;;;;30.35;41.09;100512.47;4900986;29;20059;-73
2023/07/15 10:31:12;;;;;;;4.35;2.40;;;;;;;30.42;38.04;100520.69;4888716;29;20516;-74
2023/07/15 10:34:03;;;;;;;5.20;2.67;;;;;;;30.62;40.14;100524.41;4909615;28;20042;-73
2023/07/15 10:36:38;;;;;;;4.30;2.15;;;;;;;30.81;38.07;100527.78;4890702;29;20644;-73
2023/07/15 10:39:37;;;;;;;3.58;2.00;;;;;;;30.83;37.55;100517.09;4919534;29;20055;-75
2023/07/15 10:42:18;;;;;;;4.03;2.10;;;;;;;30.65;37.74;100520.03;4897726;29;20060;-72
2023/07/15 10:44:50;;;;;;;3.80;2.20;;;;;;;30.68;37.57;100508.94;4918334;28;20042;-72
2023/07/15 10:47:19;;;;;;;2.83;2.00;;;;;;;30.80;37.69;100517.91;4935616;29;20519;-73
2023/07/15 10:49:47;;;;;;;4.75;2.45;;;;;;;30.81;38.16;100530.53;4917095;29;20098;-73
2023/07/15 10:52:19;;;;;;;3.10;2.00;;;;;;;30.71;38.36;100538.53;4939486;29;20086;-72
2023/07/15 10:54:54;;;;;;;3.42;1.95;;;;;;;30.58;37.97;100526.41;4923288;29;20047;-72
2023/07/15 10:57:24;;;;;;;2.97;1.92;;;;;;;30.50;38.98;100533.22;4936606;29;20044;-73
2023/07/15 10:59:55;;;;;;;5.53;1.95;;;;;;;30.61;37.83;100527.56;4925096;29;20036;-72
2023/07/15 11:02:23;;;;;;;3.10;1.70;;;;;;;30.53;39.34;100528.84;4932246;29;20230;-73
2023/07/15 11:04:49;;;;;;;5.25;2.08;;;;;;;30.42;38.97;100532.53;4904424;29;20785;-72
2023/07/15 11:07:28;;;;;;;6.25;2.20;;;;;;;30.17;37.74;100527.22;4902955;29;20051;-72
2023/07/15 11:09:56;;;;;;;7.13;1.98;;;;;;;30.26;39.93;100531.47;4914200;29;20482;-73
2023/07/15 11:15:36;;;;;;;2.78;2.17;;;;;;;30.10;39.83;100530.06;4928217;29;20043;-72
2023/07/15 11:18:21;;;;;;;3.83;2.20;;;;;;;29.94;43.03;100537.25;4925101;29;20051;-75
2023/07/15 11:20:57;;;;;;;3.63;2.10;;;;;;;29.81;39.45;100542.50;4950674;28;20142;-73
2023/07/15 11:23:31;;;;;;;3.85;1.88;;;;;;;29.69;39.13;100534.69;4919247;29;20091;-73
2023/07/15 11:26:11;;;;;;;4.72;2.17;;;;;;;29.77;38.23;100537.00;4910653;29;20126;-71
2023/07/15 11:28:49;;;;;;;4.10;2.10;;;;;;;29.75;37.54;100531.09;4935646;29;20043;-72
2023/07/15 11:31:18;;;;;;;5.50;2.00;;;;;;;29.71;37.90;100533.09;4915570;29;20412;-74
2023/07/15 11:33:51;;;;;;;2.78;2.05;;;;;;;29.71;38.84;100538.59;4934714;28;20032;-74
2023/07/15 11:36:17;;;;;;;5.60;1.88;;;;;;;29.66;38.39;100541.78;4918179;29;20534;-74
2023/07/15 11:38:43;;;;;;;3.13;2.20;;;;;;;29.98;39.46;100547.06;4920145;29;20134;-76
2023/07/15 11:41:09;;;;;;;6.00;2.20;;;;;;;30.09;38.73;100545.06;4931497;29;20551;-75
2023/07/15 11:43:34;;;;;;;2.80;2.35;;;;;;;30.30;39.09;100546.06;4916440;28;20032;-78
2023/07/15 11:46:01;;;;;;;8.30;2.22;;;;;;;30.20;37.88;100538.63;4928854;29;20074;-75
2023/07/15 11:48:32;;;;;;;5.57;1.85;;;;;;;30.01;38.41;100551.00;4938670;29;20046;-76
2023/07/15 11:51:05;;;;;;;4.30;1.92;;;;;;;29.77;37.95;100552.75;4927782;29;20039;-77